Brave Wind — 3FTQ7 — position and weather

sailwx.info

Track history (hours):
 
Tides and Currents Weather Stations Pressure Air Temp Water Temp Dewpoint Dewpoint Depression Visibility Wind Speed Wind Dir Waves Ship Positions

Brave Wind

Last reported at 2017-Oct-22 15:30 UTC. Time now 2017-Oct-22 15:46 UTC.
Position N 54°20' W 130°17'.

Length 200 m; draft 8 m.

Type: Cargo ship. MMSI: 374318000.

Date/timePositionNaut miles runAvg speedWind from/ knotsBaromVisibWave heightAir tempDewpointWater temp
2017-Oct-22 15:30N 54°20' W 130°17'0 0.0
2017-Oct-22 15:00N 54°20' W 130°17'0 0.0
2017-Oct-22 14:30N 54°20' W 130°17'0 0.1
2017-Oct-22 14:00N 54°20' W 130°17'0 0.2
2017-Oct-22 13:30N 54°20' W 130°17'0 0.1
2017-Oct-22 13:00N 54°21' W 130°17'0 0.1
2017-Oct-22 12:30N 54°20' W 130°17'0 0.1
2017-Oct-22 12:00N 54°20' W 130°17'0 0.0
2017-Oct-22 11:30N 54°20' W 130°17'0 0.0
2017-Oct-22 11:00N 54°20' W 130°17'0 0.0
2017-Oct-22 10:30N 54°20' W 130°17'0 0.0
2017-Oct-22 10:00N 54°20' W 130°17'0 0.1
2017-Oct-22 09:30N 54°20' W 130°17'0 0.1
2017-Oct-22 09:00N 54°20' W 130°17'0 0.1
2017-Oct-22 08:30N 54°20' W 130°17'0 0.1
2017-Oct-22 07:54N 54°20' W 130°17'0 0.1
2017-Oct-22 07:30N 54°20' W 130°17'0 0.2
2017-Oct-22 07:01N 54°20' W 130°17'0 0.0
2017-Oct-22 06:30N 54°20' W 130°17'0 0.2
2017-Oct-22 06:00N 54°20' W 130°17'1 2.1
2017-Oct-22 05:30N 54°20' W 130°19'3 5.8
2017-Oct-22 05:00N 54°17' W 130°22'5 9.2
2017-Oct-22 04:31N 54°13' W 130°22'611.4
2017-Oct-22 04:00N 54°13' W 130°31'612.4
2017-Oct-22 03:30N 54°15' W 130°42'4 8.0
2017-Oct-22 03:00N 54°16' W 130°48'5 9.6
2017-Oct-22 02:30N 54°19' W 130°55'510.9
2017-Oct-22 02:00N 54°20' W 131°04'611.3
2017-Oct-22 01:30N 54°20' W 131°14'611.2
2017-Oct-22 01:00N 54°21' W 131°24'  
Track history (hours):
 
Tides and Currents Weather Stations Pressure Air Temp Water Temp Dewpoint Dewpoint Depression Visibility Wind Speed Wind Dir Waves Ship Positions

Brave Wind

Last reported at 2017-Oct-22 15:30 UTC. Time now 2017-Oct-22 15:46 UTC.
Position N 54°20' W 130°17'.

Length 200 m; draft 8 m.

Type: Cargo ship. MMSI: 374318000.

Date/timePositionNaut miles runAvg speedWind from/ knotsBaromVisibWave heightAir tempDewpointWater temp
2017-Oct-22 15:30N 54°20' W 130°17'0 0.0
2017-Oct-22 15:00N 54°20' W 130°17'0 0.0
2017-Oct-22 14:30N 54°20' W 130°17'0 0.1
2017-Oct-22 14:00N 54°20' W 130°17'0 0.2
2017-Oct-22 13:30N 54°20' W 130°17'0 0.1
2017-Oct-22 13:00N 54°21' W 130°17'0 0.1
2017-Oct-22 12:30N 54°20' W 130°17'0 0.1
2017-Oct-22 12:00N 54°20' W 130°17'0 0.0
2017-Oct-22 11:30N 54°20' W 130°17'0 0.0
2017-Oct-22 11:00N 54°20' W 130°17'0 0.0
2017-Oct-22 10:30N 54°20' W 130°17'0 0.0
2017-Oct-22 10:00N 54°20' W 130°17'0 0.1
2017-Oct-22 09:30N 54°20' W 130°17'0 0.1
2017-Oct-22 09:00N 54°20' W 130°17'0 0.1
2017-Oct-22 08:30N 54°20' W 130°17'0 0.1
2017-Oct-22 07:54N 54°20' W 130°17'0 0.1
2017-Oct-22 07:30N 54°20' W 130°17'0 0.2
2017-Oct-22 07:01N 54°20' W 130°17'0 0.0
2017-Oct-22 06:30N 54°20' W 130°17'0 0.2
2017-Oct-22 06:00N 54°20' W 130°17'1 2.1
2017-Oct-22 05:30N 54°20' W 130°19'3 5.8
2017-Oct-22 05:00N 54°17' W 130°22'5 9.2
2017-Oct-22 04:31N 54°13' W 130°22'611.4
2017-Oct-22 04:00N 54°13' W 130°31'612.4
2017-Oct-22 03:30N 54°15' W 130°42'4 8.0
2017-Oct-22 03:00N 54°16' W 130°48'5 9.6
2017-Oct-22 02:30N 54°19' W 130°55'510.9
2017-Oct-22 02:00N 54°20' W 131°04'611.3
2017-Oct-22 01:30N 54°20' W 131°14'611.2
2017-Oct-22 01:00N 54°21' W 131°24'  

Dump ship's entire track history